Terminal Aerodrome Forecast
Issued by NWS Cleveland, OH

Home | Current Version | Previous Version | Graphics & Text | Print | Product List | Glossary On
Versions: 1 2 3 4 5 6 7 8 9 10 11 12 13 14 15 16 17 18
000
FTUS41 KCLE 251700
TAFTOL
TAF
KTOL 251726Z 2518/2618 22018G28KT P6SM SCT030 BKN080 OVC120
      TEMPO 2518/2522 -SHRA BKN030
     FM252200 23020G32KT P6SM VCSH BKN045
     FM260000 23012G20KT P6SM SCT045 BKN150
     FM260200 22007KT P6SM BKN250
     FM260800 20005KT 6SM BR SCT012 BKN250
      TEMPO 2609/2613 5SM BR BKN012
     FM261400 22008KT P6SM BKN025=

USA.gov is the U.S. government's official web portal to all federal, state and local government web resources and services.